CYSM

Fort Smith Airport

Fort Smith, Northwest Territories, Canada
METAR CYSM 231200Z 34007KT 15SM FEW150 BKN180 BKN230 11/07 A3026 RMK AC2AC4CI1 SLP256
Observed Flight Rules
Jul-23 @ 12:00 UTC (an hour ago) Visual Flight Rules
Wind Visibility Clouds
340° at 7 knots 15 miles
  • Few at 15,000' AGL
  • Broken at 18,000' AGL
  • Broken at 23,000' AGL
Temperatures Readings
Current 11°C / 52°F
Dewpoint 7°C / 45°F
Humidity 77%
Altimeter 30.26" Hg
Pressure 1025.6 hPa
Elevation 203
METAR CYSM 231200Z 34007KT 15SM FEW150 BKN180 BKN230 11/07 A3026 RMK AC2AC4CI1 SLP256
Observed Flight Rules
Jul-23 @ 12:00 UTC
(an hour ago)
VFR
Wind Visibility
340° at 7 knots 15 miles
Clouds
  • Few at 15,000' AGL
  • Broken at 18,000' AGL
  • Broken at 23,000' AGL
Temperature Dewpoint
11°C / 52°F 7°C / 45°F
Humidity Altimeter Pressure
77% 30.26" Hg 1025.6 hPa